Terminal Aerodrome Forecast (TAF)

TAF

Data at: 1120 UTC 23 Feb 2020

TAF for:NVSC (Sola/Vanua Lava Arpt, --, NV) issued at 1000 UTC 23 Feb 2020
Text:TAF NVSC 231000Z 2312/2412 VRB01KT 9999 SCT020
Forecast period:1200 UTC 23 February 2020 to 1200 UTC 24 February 2020
Forecast type:FROM: standard forecast or significant change
Winds:variable direction winds at 1 MPH (1 knots; 0.5 m/s)
Visibility:6 or more sm (10+ km)
Ceiling:at least 12,000 feet AGL
Clouds: scattered clouds at 2000 feet AGL

TAF

Data at: 1120 UTC 23 Feb 2020

TAF for:NVSG (Longana Arpt, --, NV) issued at 1000 UTC 23 Feb 2020
Text:TAF NVSG 231000Z 2312/2412 VRB04KT 9999 SCT020
Forecast period:1200 UTC 23 February 2020 to 1200 UTC 24 February 2020
Forecast type:FROM: standard forecast or significant change
Winds:variable direction winds at 5 MPH (4 knots; 2.1 m/s)
Visibility:6 or more sm (10+ km)
Ceiling:at least 12,000 feet AGL
Clouds: scattered clouds at 2000 feet AGL

TAF

Data at: 1120 UTC 23 Feb 2020

TAF for:NVSS (Santo/Pekoa Intl, --, NV) issued at 1000 UTC 23 Feb 2020
Text:TAF NVSS 231000Z 2312/2412 12006KT 9999 SCT020
Forecast period:1200 UTC 23 February 2020 to 1200 UTC 24 February 2020
Forecast type:FROM: standard forecast or significant change
Winds:from the ESE (120 degrees) at 7 MPH (6 knots; 3.1 m/s)
Visibility:6 or more sm (10+ km)
Ceiling:at least 12,000 feet AGL
Clouds: scattered clouds at 2000 feet AGL
Text:PROB30
Forecast period:1200 to 1800 UTC 23 February 2020
Forecast type:TEMPORARY: The following changes expected for less than half the time period
Visibility: 6 sm ( 9 km)
Ceiling:1800 feet AGL
Clouds: broken clouds at 1800 feet AGL
Weather:-SHRA (light rain showers)

TAF

Data at: 1120 UTC 23 Feb 2020

TAF for:NVSL (Malekula/Lamap, --, NV) issued at 1000 UTC 23 Feb 2020
Text:TAF NVSL 231000Z 2312/2412 14006KT 9999 SCT020
Forecast period:1200 UTC 23 February 2020 to 1200 UTC 24 February 2020
Forecast type:FROM: standard forecast or significant change
Winds:from the SE (140 degrees) at 7 MPH (6 knots; 3.1 m/s)
Visibility:6 or more sm (10+ km)
Ceiling:at least 12,000 feet AGL
Clouds: scattered clouds at 2000 feet AGL

TAF

Data at: 1120 UTC 23 Feb 2020

TAF for:NVSP (Norsup Arpt, --, NV) issued at 1000 UTC 23 Feb 2020
Text:TAF NVSP 231000Z 2312/2412 14006KT 9999 SCT020
Forecast period:1200 UTC 23 February 2020 to 1200 UTC 24 February 2020
Forecast type:FROM: standard forecast or significant change
Winds:from the SE (140 degrees) at 7 MPH (6 knots; 3.1 m/s)
Visibility:6 or more sm (10+ km)
Ceiling:at least 12,000 feet AGL
Clouds: scattered clouds at 2000 feet AGL

TAF

Data at: 1120 UTC 23 Feb 2020

TAF for:NVVV (Efate/Bauerfield Int, --, NV) issued at 1000 UTC 23 Feb 2020
Text:TAF NVVV 231000Z 2312/2412 VRB02KT 9999 FEW020
Forecast period:1200 UTC 23 February 2020 to 1200 UTC 24 February 2020
Forecast type:FROM: standard forecast or significant change
Winds:variable direction winds at 2 MPH (2 knots; 1.0 m/s)
Visibility:6 or more sm (10+ km)
Ceiling:at least 12,000 feet AGL
Clouds: few clouds at 2000 feet AGL

TAF

Data at: 1120 UTC 23 Feb 2020

TAF for:NVVW (Tanna Arpt, --, NV) issued at 1000 UTC 23 Feb 2020
Text:TAF NVVW 231000Z 2312/2412 VRB03KT 9999 FEW025
Forecast period:1200 UTC 23 February 2020 to 1200 UTC 24 February 2020
Forecast type:FROM: standard forecast or significant change
Winds:variable direction winds at 3 MPH (3 knots; 1.5 m/s)
Visibility:6 or more sm (10+ km)
Ceiling:at least 12,000 feet AGL
Clouds: few clouds at 2500 feet AGL

TAF

Data at: 1120 UTC 23 Feb 2020

TAF for:NVVA (Aneityum/Mystery Isl, --, NV) issued at 1000 UTC 23 Feb 2020
Text:TAF NVVA 231000Z 2312/2412 09008KT 9999 SCT020
Forecast period:1200 UTC 23 February 2020 to 1200 UTC 24 February 2020
Forecast type:FROM: standard forecast or significant change
Winds:from the E (90 degrees) at 9 MPH (8 knots; 4.1 m/s)
Visibility:6 or more sm (10+ km)
Ceiling:at least 12,000 feet AGL
Clouds: scattered clouds at 2000 feet AGL

TAF

Data at: 1120 UTC 23 Feb 2020

TAF NVVV 231000Z 2312/2412 VRB02KT 9999 FEW020
TAF NVSC 231000Z 2312/2412 VRB01KT 9999 SCT020
TAF NVSG 231000Z 2312/2412 VRB04KT 9999 SCT020
TAF NVSS 231000Z 2312/2412 12006KT 9999 SCT020
  PROB30
  INTER 2312/2318 9000 -SHRA BKN018
TAF NVSL 231000Z 2312/2412 14006KT 9999 SCT020
TAF NVSP 231000Z 2312/2412 14006KT 9999 SCT020
TAF NVVW 231000Z 2312/2412 VRB03KT 9999 FEW025
TAF NVVA 231000Z 2312/2412 09008KT 9999 SCT020